LEMD/MAD METAR and TAF weather

Enter ICAO airport designator
Station Type Date Time Source
LEMD METAR 2021/03/08 12:00 UTC NOAA

LEMD 081200Z 27002KT 9999 FEW025 SCT035 12/06 Q1014 NOSIG


Station Type Date Time Source
LEMD Decoded METAR 2021/03/08 12:00 UTC NOAA

Madrid / Barajas, Spain (LEMD) 40-27N 003-33W 582M
Mar 08, 2021 - 07:00 AM EST / 2021.03.08 1200 UTC
Wind: from the W (270 degrees) at 2 MPH (2 KT):0
Visibility: greater than 7 mile(s):0
Sky conditions: partly cloudy
Temperature: 53 F (12 C)
Dew Point: 42 F (6 C)
Relative Humidity: 66%
Pressure (altimeter): 29.94 in. Hg (1014 hPa)
ob: LEMD 081200Z 27002KT 9999 FEW025 SCT035 12/06 Q1014 NOSIG
cycle: 12

Station Type Date Time Source
LEMD TAF 2021/03/08 12:27 UTC NOAA

TAF TAF LEMD 081100Z 0812/0918 VRB04KT 9999 BKN030 TX14/0915Z TN03/0906Z PROB40
TEMPO 0812/0820 01010KT 3000 SHRA BKN025TCU PROB30
TEMPO 0813/0819 VRB15G25KT 3000 TSRA SHRA SCT025CB
BECMG 0818/0819 02010KT

Example: see airport list